Time;durP1;ratioP1;P1;durP2;ratioP2;P2;SDS_P1;SDS_P2;PMS_P1;PMS_P2;Temp;Humidity;BMP_temperature;BMP_pressure;BME280_temperature;BME280_humidity;BME280_pressure;Samples;Min_cycle;Max_cycle;Signal;HPM_P1;HPM_P2
2022/01/09 00:01:30;;;;;;;2.72;1.60;;;19.60;47.10;;;;;;6197370;28;20010;-66
2022/01/09 00:04:30;;;;;;;3.30;1.95;;;19.60;47.10;;;;;;6195992;28;20491;-66
2022/01/09 00:07:31;;;;;;;2.42;1.70;;;19.60;47.10;;;;;;6196389;28;20034;-66
2022/01/09 00:10:33;;;;;;;2.65;1.98;;;19.60;47.10;;;;;;6196453;28;20247;-66
2022/01/09 00:13:33;;;;;;;2.05;1.40;;;19.60;47.10;;;;;;6196402;28;20058;-65
2022/01/09 00:16:34;;;;;;;2.25;1.73;;;19.60;47.10;;;;;;6196373;28;20109;-66
2022/01/09 00:19:34;;;;;;;2.13;1.60;;;19.60;47.10;;;;;;6195892;28;20045;-65
2022/01/09 00:22:43;;;;;;;2.80;1.80;;;19.60;47.10;;;;;;6196045;28;20030;-66
2022/01/09 00:25:44;;;;;;;1.85;1.45;;;19.60;47.70;;;;;;6196478;28;20014;-66
2022/01/09 00:28:44;;;;;;;2.30;1.45;;;19.60;47.00;;;;;;6195889;28;20117;-66
2022/01/09 00:31:45;;;;;;;2.58;1.65;;;19.60;47.10;;;;;;6195782;28;20056;-66
2022/01/09 00:34:45;;;;;;;1.90;1.35;;;19.60;47.10;;;;;;6218250;28;20018;-66
2022/01/09 00:37:46;;;;;;;2.78;1.63;;;19.60;47.10;;;;;;6219987;28;20419;-65
2022/01/09 00:40:47;;;;;;;2.03;1.40;;;19.60;47.00;;;;;;6219781;28;20040;-66
2022/01/09 00:43:48;;;;;;;2.22;1.30;;;19.60;47.00;;;;;;6220059;28;20109;-65
2022/01/09 00:46:48;;;;;;;2.13;1.70;;;19.60;47.10;;;;;;6218492;28;20026;-64
2022/01/09 00:49:49;;;;;;;2.50;1.67;;;19.60;47.10;;;;;;6219710;28;20026;-65
2022/01/09 00:52:49;;;;;;;2.28;1.50;;;19.60;47.10;;;;;;6207160;28;20091;-66
2022/01/09 00:55:50;;;;;;;3.75;1.95;;;19.60;47.10;;;;;;6195450;28;20069;-65
2022/01/09 00:58:50;;;;;;;1.20;1.10;;;19.60;47.80;;;;;;6195027;28;20037;-66
2022/01/09 01:01:51;;;;;;;2.38;1.45;;;19.60;47.10;;;;;;6196051;28;20018;-66
2022/01/09 01:04:51;;;;;;;2.20;1.48;;;19.60;47.10;;;;;;6193837;28;20373;-66
2022/01/09 01:07:52;;;;;;;2.50;1.77;;;19.60;47.10;;;;;;6195007;28;20479;-66
2022/01/09 01:10:53;;;;;;;1.38;1.23;;;19.60;47.10;;;;;;6195107;28;20400;-66
2022/01/09 01:13:53;;;;;;;1.65;1.35;;;19.60;47.10;;;;;;6192816;28;20133;-66
2022/01/09 01:16:55;;;;;;;2.38;1.80;;;19.60;47.20;;;;;;6194958;28;20035;-66
2022/01/09 01:19:55;;;;;;;3.15;1.92;;;19.60;47.10;;;;;;6194696;28;20022;-66
2022/01/09 01:22:58;;;;;;;2.53;1.73;;;19.60;47.10;;;;;;6195012;28;20563;-66
2022/01/09 01:26:01;;;;;;;1.75;1.35;;;19.60;47.20;;;;;;6193422;28;20034;-66
2022/01/09 01:29:02;;;;;;;2.25;1.40;;;19.60;47.10;;;;;;6194119;28;20027;-66
2022/01/09 01:32:04;;;;;;;2.42;1.58;;;19.60;47.10;;;;;;6194923;28;20451;-66
2022/01/09 01:35:05;;;;;;;1.55;1.30;;;19.60;47.10;;;;;;6219366;28;20414;-66
2022/01/09 01:38:06;;;;;;;1.67;1.40;;;19.60;47.10;;;;;;6218928;28;20027;-66
2022/01/09 01:41:06;;;;;;;1.98;1.48;;;19.60;47.10;;;;;;6219769;28;20015;-66
2022/01/09 01:44:12;;;;;;;1.70;1.50;;;19.60;47.10;;;;;;6218871;28;20031;-66
2022/01/09 01:47:17;;;;;;;2.83;1.55;;;19.60;47.10;;;;;;6218647;28;20056;-66
2022/01/09 01:50:19;;;;;;;2.63;1.52;;;19.60;47.10;;;;;;6218861;28;20030;-66
2022/01/09 01:53:21;;;;;;;2.25;1.40;;;19.60;47.10;;;;;;6202420;28;20026;-66
2022/01/09 01:56:23;;;;;;;1.73;1.40;;;19.50;47.00;;;;;;6194532;28;20072;-66
2022/01/09 01:59:23;;;;;;;1.80;1.50;;;19.50;47.00;;;;;;6194112;28;20498;-66
2022/01/09 02:02:25;;;;;;;1.60;1.33;;;19.50;47.00;;;;;;6194325;28;20022;-66
2022/01/09 02:05:27;;;;;;;2.25;1.40;;;19.50;47.00;;;;;;6209177;28;20534;-66
2022/01/09 02:08:30;;;;;;;1.88;1.27;;;19.50;47.00;;;;;;6194292;28;20039;-66
2022/01/09 02:11:31;;;;;;;3.05;1.60;;;19.50;47.00;;;;;;6194552;28;20038;-66
2022/01/09 02:14:35;;;;;;;2.15;1.50;;;19.50;47.10;;;;;;6194487;28;20081;-66
2022/01/09 02:17:36;;;;;;;2.05;1.50;;;19.50;47.00;;;;;;6209119;28;20114;-66
2022/01/09 02:20:37;;;;;;;2.30;1.52;;;19.50;47.00;;;;;;6194186;28;20399;-66
2022/01/09 02:23:40;;;;;;;2.03;1.42;;;19.50;47.00;;;;;;6194092;28;20244;-66
2022/01/09 02:26:41;;;;;;;2.20;1.42;;;19.50;47.00;;;;;;6196875;28;20054;-67
2022/01/09 02:29:46;;;;;;;2.15;1.40;;;19.50;47.00;;;;;;6198919;28;20117;-66
2022/01/09 02:32:47;;;;;;;2.10;1.25;;;19.50;47.00;;;;;;6205099;28;20037;-66
2022/01/09 02:35:51;;;;;;;1.88;1.30;;;19.50;47.00;;;;;;6222667;28;20034;-66
2022/01/09 02:38:51;;;;;;;2.00;1.50;;;19.50;47.00;;;;;;6223063;28;20048;-65
2022/01/09 02:41:52;;;;;;;2.33;1.65;;;19.50;47.00;;;;;;6221458;28;20475;-65
2022/01/09 02:44:55;;;;;;;1.65;1.33;;;19.50;47.00;;;;;;6221494;28;20138;-66
2022/01/09 02:47:57;;;;;;;2.58;1.50;;;19.50;47.00;;;;;;6221131;28;20484;-67
2022/01/09 02:51:04;;;;;;;2.15;1.40;;;19.50;47.00;;;;;;6222696;28;20466;-66
2022/01/09 02:55:05;;;;;;;1.75;1.20;;;19.50;47.00;;;;;;6198766;28;20108;-66
2022/01/09 02:57:28;;;;;;;2.08;1.38;;;19.50;47.00;;;;;;6197780;28;20035;-65
2022/01/09 03:00:34;;;;;;;2.20;1.40;;;19.50;47.00;;;;;;6198422;28;20034;-65
2022/01/09 03:03:35;;;;;;;1.85;1.40;;;19.50;47.00;;;;;;6198206;28;20053;-66
2022/01/09 03:06:36;;;;;;;1.30;1.08;;;19.50;47.00;;;;;;6198100;28;20057;-66
2022/01/09 03:09:36;;;;;;;1.40;1.30;;;19.50;47.00;;;;;;6198472;28;20022;-66
2022/01/09 03:12:37;;;;;;;1.52;1.10;;;19.50;47.00;;;;;;6198106;28;20126;-68
2022/01/09 03:15:38;;;;;;;1.77;1.45;;;19.50;47.00;;;;;;6198133;28;20106;-68
2022/01/09 03:18:39;;;;;;;1.95;1.40;;;19.50;47.00;;;;;;6198116;28;20027;-68
2022/01/09 03:21:39;;;;;;;1.98;1.40;;;19.50;47.00;;;;;;6198769;28;20096;-67
2022/01/09 03:24:42;;;;;;;1.83;1.50;;;19.50;47.00;;;;;;6198589;28;20467;-67
2022/01/09 03:27:45;;;;;;;1.85;1.30;;;19.50;47.00;;;;;;6197300;28;20480;-67
2022/01/09 03:30:45;;;;;;;2.05;1.38;;;19.50;47.00;;;;;;6196284;28;20072;-67
2022/01/09 03:33:46;;;;;;;1.67;1.40;;;19.50;47.00;;;;;;6211560;28;20034;-66
2022/01/09 03:36:47;;;;;;;1.70;1.52;;;19.50;47.00;;;;;;6220993;28;20033;-66
2022/01/09 03:39:47;;;;;;;2.35;1.50;;;19.50;47.00;;;;;;6221182;28;20171;-67
2022/01/09 03:42:51;;;;;;;1.95;1.50;;;19.50;47.00;;;;;;6221566;28;20115;-68
2022/01/09 03:45:52;;;;;;;1.58;1.20;;;19.50;47.00;;;;;;6221246;28;20022;-67
2022/01/09 03:48:52;;;;;;;2.05;1.33;;;19.50;47.00;;;;;;6221122;28;20033;-66
2022/01/09 03:51:55;;;;;;;2.10;1.42;;;19.40;47.00;;;;;;6216427;28;20109;-67
2022/01/09 03:54:55;;;;;;;1.77;1.30;;;19.40;47.00;;;;;;6196803;28;20018;-67
2022/01/09 03:57:56;;;;;;;1.42;1.13;;;19.50;47.00;;;;;;6196563;28;20396;-67
2022/01/09 04:00:56;;;;;;;1.40;1.23;;;19.50;47.00;;;;;;6196556;28;20431;-67
2022/01/09 04:03:57;;;;;;;2.00;1.30;;;19.40;46.90;;;;;;6195639;28;20050;-67
2022/01/09 04:06:57;;;;;;;1.55;1.33;;;19.40;46.90;;;;;;6196770;28;20674;-67
2022/01/09 04:09:58;;;;;;;2.47;1.55;;;19.50;47.00;;;;;;6197059;28;20431;-66
2022/01/09 04:13:01;;;;;;;1.85;1.38;;;19.50;47.00;;;;;;6194863;28;20033;-66
2022/01/09 04:16:02;;;;;;;2.40;1.45;;;19.40;46.90;;;;;;6196486;28;20050;-67
2022/01/09 04:19:03;;;;;;;2.42;1.33;;;19.40;46.90;;;;;;6195843;28;20035;-67
2022/01/09 04:22:03;;;;;;;2.15;1.50;;;19.40;46.90;;;;;;6201976;28;20022;-66
2022/01/09 04:25:05;;;;;;;2.78;1.38;;;19.40;46.90;;;;;;6221275;28;20022;-66
2022/01/09 04:28:06;;;;;;;1.92;1.30;;;19.40;46.90;;;;;;6220336;28;20033;-65
2022/01/09 04:31:07;;;;;;;1.75;1.38;;;19.50;47.00;;;;;;6219392;28;20049;-66
2022/01/09 04:34:07;;;;;;;1.50;1.25;;;19.40;46.80;;;;;;6220155;28;20033;-66
2022/01/09 04:37:08;;;;;;;1.80;1.15;;;19.40;46.80;;;;;;6220325;28;20061;-66
2022/01/09 04:40:11;;;;;;;2.05;1.38;;;19.40;46.80;;;;;;6219948;28;20512;-66
2022/01/09 04:43:13;;;;;;;2.30;1.50;;;19.40;46.90;;;;;;6219912;28;20022;-66
2022/01/09 04:46:20;;;;;;;2.10;1.27;;;19.40;46.90;;;;;;6219992;28;20463;-66
2022/01/09 04:49:24;;;;;;;2.35;1.45;;;19.40;46.90;;;;;;6219702;28;20134;-66
2022/01/09 04:52:29;;;;;;;2.15;1.40;;;19.40;46.90;;;;;;6210693;28;20057;-66
2022/01/09 04:55:32;;;;;;;1.95;1.38;;;19.40;46.90;;;;;;6195741;28;20097;-66
2022/01/09 04:58:33;;;;;;;2.17;1.50;;;19.40;46.90;;;;;;6194998;28;20081;-66
2022/01/09 05:01:33;;;;;;;1.50;1.20;;;19.40;46.90;;;;;;6195379;28;20022;-66
2022/01/09 05:04:34;;;;;;;2.03;1.40;;;19.40;46.90;;;;;;6195405;28;20035;-66
2022/01/09 05:07:35;;;;;;;1.77;1.17;;;19.40;46.90;;;;;;6195201;28;20133;-66
2022/01/09 05:10:36;;;;;;;1.85;1.20;;;19.40;46.90;;;;;;6195067;28;20035;-67
2022/01/09 05:13:37;;;;;;;1.75;1.25;;;19.40;46.90;;;;;;6194955;28;20286;-66
2022/01/09 05:16:42;;;;;;;1.60;1.20;;;19.40;46.90;;;;;;6195148;28;20023;-66
2022/01/09 05:19:46;;;;;;;1.48;1.30;;;19.40;46.90;;;;;;6195071;28;20046;-66
2022/01/09 05:22:46;;;;;;;2.05;1.30;;;19.40;46.80;;;;;;6194950;28;20022;-66
2022/01/09 05:25:47;;;;;;;1.70;1.40;;;19.40;46.80;;;;;;6193664;28;20243;-64
2022/01/09 05:28:47;;;;;;;1.67;1.25;;;19.50;46.90;;;;;;6194976;28;20027;-65
2022/01/09 05:31:48;;;;;;;2.03;1.42;;;19.50;46.80;;;;;;6193839;28;20030;-66
2022/01/09 05:34:49;;;;;;;1.75;1.23;;;19.50;46.80;;;;;;6217394;28;20125;-66
2022/01/09 05:37:49;;;;;;;1.45;1.10;;;19.50;46.80;;;;;;6217663;28;20107;-66
2022/01/09 05:40:50;;;;;;;1.90;1.23;;;19.50;46.70;;;;;;6219268;28;20029;-66
2022/01/09 05:43:51;;;;;;;1.40;1.10;;;19.50;46.70;;;;;;6217928;28;20446;-66
2022/01/09 05:46:51;;;;;;;1.23;1.00;;;19.50;46.60;;;;;;6219221;28;20053;-66
2022/01/09 05:49:52;;;;;;;1.63;1.30;;;19.50;46.70;;;;;;6219300;28;20030;-66
2022/01/09 05:52:52;;;;;;;1.55;1.10;;;19.50;46.70;;;;;;6209438;28;20023;-66
2022/01/09 05:55:53;;;;;;;1.30;1.10;;;19.50;46.70;;;;;;6194677;28;20026;-65
2022/01/09 05:58:53;;;;;;;1.33;1.10;;;19.50;46.70;;;;;;6195169;28;20114;-66
2022/01/09 06:01:56;;;;;;;1.40;1.17;;;19.50;46.70;;;;;;6206229;28;20058;-66
2022/01/09 06:04:57;;;;;;;1.65;1.38;;;19.50;46.70;;;;;;6223691;28;20345;-66
2022/01/09 06:07:57;;;;;;;1.25;1.05;;;19.50;46.70;;;;;;6223315;28;20033;-66
2022/01/09 06:10:58;;;;;;;1.40;1.20;;;19.50;46.70;;;;;;6223776;28;20041;-65
2022/01/09 06:13:58;;;;;;;1.65;1.05;;;19.50;46.60;;;;;;6223288;28;20057;-66
2022/01/09 06:16:59;;;;;;;1.15;0.95;;;19.50;46.60;;;;;;6223560;28;20026;-65
2022/01/09 06:19:59;;;;;;;1.15;1.05;;;19.50;46.60;;;;;;6223117;28;20525;-65
2022/01/09 06:23:01;;;;;;;1.15;0.98;;;19.50;46.60;;;;;;6223447;28;20026;-66
2022/01/09 06:26:01;;;;;;;1.73;1.02;;;19.50;46.60;;;;;;6223433;28;20029;-68
2022/01/09 06:29:02;;;;;;;1.38;0.93;;;19.50;46.60;;;;;;6223322;28;20422;-68
2022/01/09 06:32:03;;;;;;;2.17;1.17;;;19.50;46.60;;;;;;6223201;28;20025;-68
2022/01/09 06:35:06;;;;;;;1.27;1.05;;;19.50;46.50;;;;;;6223132;28;20022;-67
2022/01/09 06:38:07;;;;;;;1.65;1.10;;;19.50;46.60;;;;;;6222572;28;20022;-68
2022/01/09 06:41:09;;;;;;;2.05;1.10;;;19.50;46.60;;;;;;6223086;28;20029;-68
2022/01/09 06:44:09;;;;;;;1.23;1.10;;;19.50;46.60;;;;;;6222857;28;20037;-67
2022/01/09 06:47:10;;;;;;;1.30;0.88;;;19.50;46.50;;;;;;6222747;28;20026;-68
2022/01/09 06:50:11;;;;;;;1.40;1.10;;;19.50;46.60;;;;;;6221548;28;20025;-69
2022/01/09 06:53:11;;;;;;;1.70;1.33;;;19.50;46.60;;;;;;6207479;28;20030;-67
2022/01/09 06:56:12;;;;;;;1.23;1.00;;;19.50;46.50;;;;;;6198215;28;20066;-67
2022/01/09 06:59:12;;;;;;;1.50;1.10;;;19.50;46.50;;;;;;6197940;28;20072;-68
2022/01/09 07:02:13;;;;;;;1.75;1.23;;;19.50;46.60;;;;;;6198583;28;20030;-68
2022/01/09 07:05:15;;;;;;;1.15;0.95;;;19.50;46.60;;;;;;6198370;28;20034;-68
2022/01/09 07:08:16;;;;;;;1.48;1.02;;;19.50;46.60;;;;;;6197676;28;20039;-68
2022/01/09 07:11:16;;;;;;;1.67;1.33;;;19.50;46.50;;;;;;6197898;28;20413;-68
2022/01/09 07:14:17;;;;;;;1.58;1.20;;;19.50;46.50;;;;;;6196454;28;20050;-68
2022/01/09 07:17:17;;;;;;;1.55;1.08;;;19.50;46.50;;;;;;6197885;28;20027;-68
2022/01/09 07:20:18;;;;;;;1.33;1.08;;;19.50;46.60;;;;;;6197790;28;20109;-68
2022/01/09 07:23:19;;;;;;;1.83;1.17;;;19.50;46.50;;;;;;6198212;28;20034;-68
2022/01/09 07:26:19;;;;;;;1.58;0.88;;;19.60;46.60;;;;;;6197286;28;20037;-68
2022/01/09 07:29:21;;;;;;;0.98;0.73;;;19.50;46.60;;;;;;6197581;28;20080;-68
2022/01/09 07:32:22;;;;;;;1.70;1.05;;;19.50;46.50;;;;;;6200077;28;20034;-68
2022/01/09 07:35:23;;;;;;;1.48;1.13;;;19.50;46.50;;;;;;6221698;28;20049;-67
2022/01/09 07:38:24;;;;;;;1.63;1.15;;;19.60;46.60;;;;;;6221254;28;20027;-69
2022/01/09 07:41:25;;;;;;;1.58;1.17;;;19.50;46.50;;;;;;6221536;28;20029;-68
2022/01/09 07:44:26;;;;;;;1.10;0.80;;;19.50;46.50;;;;;;6221692;28;20089;-68
2022/01/09 07:47:26;;;;;;;1.10;1.00;;;19.50;46.60;;;;;;6221230;28;20023;-68
2022/01/09 07:50:28;;;;;;;1.13;0.90;;;19.50;46.50;;;;;;6221363;28;20034;-68
2022/01/09 07:53:28;;;;;;;1.42;1.15;;;19.50;46.50;;;;;;6221585;28;20072;-69
2022/01/09 07:56:29;;;;;;;0.98;0.85;;;19.50;46.50;;;;;;6221097;28;20018;-68
2022/01/09 07:59:29;;;;;;;1.83;1.23;;;19.50;46.50;;;;;;6221054;28;20023;-68
2022/01/09 08:02:30;;;;;;;1.38;0.93;;;19.50;46.50;;;;;;6219577;28;20049;-68
2022/01/09 08:05:31;;;;;;;1.48;1.17;;;19.50;46.50;;;;;;6221382;28;20030;-68
2022/01/09 08:08:31;;;;;;;1.38;1.15;;;19.50;46.50;;;;;;6220781;28;20022;-68
2022/01/09 08:11:32;;;;;;;2.00;1.42;;;19.50;46.50;;;;;;6221166;28;20038;-68
2022/01/09 08:14:32;;;;;;;1.10;1.00;;;19.50;46.50;;;;;;6220651;28;20054;-68
2022/01/09 08:17:33;;;;;;;1.42;1.08;;;19.50;46.50;;;;;;6220560;28;20022;-68
2022/01/09 08:20:33;;;;;;;3.92;1.20;;;19.50;46.50;;;;;;6219555;28;20022;-68
2022/01/09 08:23:34;;;;;;;1.15;0.90;;;19.50;46.50;;;;;;6221305;28;20034;-66
2022/01/09 08:26:34;;;;;;;1.77;0.98;;;19.50;46.50;;;;;;6221057;28;20029;-66
2022/01/09 08:29:37;;;;;;;1.48;1.10;;;19.50;46.50;;;;;;6221545;28;20391;-66
2022/01/09 08:32:38;;;;;;;1.30;1.10;;;19.50;46.50;;;;;;6218785;28;20080;-67
2022/01/09 08:35:39;;;;;;;1.27;1.05;;;19.50;46.50;;;;;;6219339;28;20057;-66
2022/01/09 08:38:40;;;;;;;1.40;1.00;;;19.50;46.50;;;;;;6220352;28;20528;-66
2022/01/09 08:41:41;;;;;;;1.15;1.00;;;19.50;46.50;;;;;;6220061;28;20026;-66
2022/01/09 08:44:42;;;;;;;1.50;1.10;;;19.50;46.50;;;;;;6220523;28;20068;-67
2022/01/09 08:47:43;;;;;;;1.23;0.95;;;19.50;46.50;;;;;;6218509;28;20399;-66
2022/01/09 08:50:44;;;;;;;1.52;0.90;;;19.50;46.50;;;;;;6220141;28;20073;-66
2022/01/09 08:53:50;;;;;;;1.63;1.10;;;19.50;46.50;;;;;;6220339;28;20024;-67
2022/01/09 08:56:51;;;;;;;1.02;0.90;;;19.50;46.40;;;;;;6220230;28;20053;-67
2022/01/09 08:59:52;;;;;;;2.47;1.10;;;19.50;46.50;;;;;;6217877;28;20122;-67
2022/01/09 09:02:53;;;;;;;1.35;1.00;;;19.50;46.50;;;;;;6219773;28;20026;-68
2022/01/09 09:05:54;;;;;;;1.85;1.17;;;19.50;46.50;;;;;;6219850;28;20027;-66
2022/01/09 09:08:54;;;;;;;1.20;1.10;;;19.50;46.40;;;;;;6219391;28;20033;-66
2022/01/09 09:11:55;;;;;;;1.10;0.82;;;19.50;46.50;;;;;;6219528;28;20519;-67
2022/01/09 09:14:56;;;;;;;2.05;1.10;;;19.50;46.40;;;;;;6218107;28;20056;-66
2022/01/09 09:17:56;;;;;;;1.13;0.98;;;19.50;47.10;;;;;;6219846;28;20580;-67
2022/01/09 09:20:57;;;;;;;2.00;1.30;;;19.60;46.50;;;;;;6218124;28;20022;-67
2022/01/09 09:23:58;;;;;;;1.55;1.17;;;19.60;46.50;;;;;;6219351;28;20022;-67
2022/01/09 09:26:58;;;;;;;1.08;0.98;;;19.60;46.50;;;;;;6219597;28;20542;-67
2022/01/09 09:30:02;;;;;;;2.10;1.10;;;19.50;46.50;;;;;;6219005;28;20055;-66
2022/01/09 09:33:05;;;;;;;1.10;0.90;;;19.50;46.50;;;;;;6219427;28;20034;-67
2022/01/09 09:36:05;;;;;;;1.60;1.10;;;19.50;46.60;;;;;;6218734;28;20026;-67
2022/01/09 09:39:08;;;;;;;1.50;1.00;;;19.50;46.60;;;;;;6218821;28;20096;-66
2022/01/09 09:42:09;;;;;;;1.77;1.08;;;19.60;46.70;;;;;;6218957;28;20423;-67
2022/01/09 09:45:11;;;;;;;1.58;1.15;;;19.60;46.80;;;;;;6219137;28;20029;-68
2022/01/09 09:48:12;;;;;;;1.15;1.00;;;19.50;46.70;;;;;;6219098;28;20440;-67
2022/01/09 09:51:12;;;;;;;1.42;1.10;;;19.60;46.80;;;;;;6219435;28;20033;-67
2022/01/09 09:54:13;;;;;;;1.48;0.98;;;19.50;46.70;;;;;;6195570;28;20041;-66
2022/01/09 09:57:14;;;;;;;1.38;0.90;;;19.60;46.80;;;;;;6194890;28;20026;-66
2022/01/09 10:00:18;;;;;;;1.40;1.00;;;19.60;46.80;;;;;;6194428;28;20031;-66
2022/01/09 10:03:32;;;;;;;1.48;0.90;;;19.60;46.90;;;;;;6193086;28;20030;-68
2022/01/09 10:06:42;;;;;;;1.50;1.00;;;19.60;46.90;;;;;;6211527;28;20091;-69
2022/01/09 10:09:55;;;;;;;1.88;1.10;;;19.60;46.90;;;;;;6220622;28;20018;-68
2022/01/09 10:13:09;;;;;;;1.73;1.30;;;19.60;46.90;;;;;;6217387;28;20387;-68
2022/01/09 10:16:10;;;;;;;1.45;1.00;;;19.60;46.90;;;;;;6215701;28;20123;-68
2022/01/09 10:19:11;;;;;;;1.27;1.00;;;19.60;46.90;;;;;;6217514;28;20330;-68
2022/01/09 10:22:29;;;;;;;1.05;0.90;;;19.60;46.90;;;;;;6214523;28;20072;-69
2022/01/09 10:25:37;;;;;;;1.40;1.10;;;19.60;47.00;;;;;;6216235;28;20025;-69
2022/01/09 10:28:39;;;;;;;1.75;1.23;;;19.60;47.00;;;;;;6216836;28;20022;-68
2022/01/09 10:31:44;;;;;;;1.38;1.15;;;19.60;47.00;;;;;;6225493;28;20072;-69
2022/01/09 10:35:13;;;;;;;1.50;1.10;;;19.60;47.00;;;;;;6218868;28;20030;-68
2022/01/09 10:38:19;;;;;;;1.08;0.85;;;19.60;47.00;;;;;;6215669;28;20060;-68
2022/01/09 10:41:19;;;;;;;1.95;1.20;;;19.60;47.00;;;;;;6217742;28;20018;-68
2022/01/09 10:44:27;;;;;;;1.95;1.50;;;19.60;47.00;;;;;;6229792;28;20095;-69
2022/01/09 10:47:36;;;;;;;1.25;1.02;;;19.60;47.10;;;;;;6234487;28;20029;-68
2022/01/09 10:50:41;;;;;;;2.08;1.23;;;19.60;47.00;;;;;;6221550;28;20057;-68
2022/01/09 10:53:43;;;;;;;1.35;1.08;;;19.60;47.10;;;;;;6202912;28;20318;-67
2022/01/09 10:56:43;;;;;;;1.67;1.20;;;19.60;47.00;;;;;;6223123;28;20025;-67
2022/01/09 10:59:45;;;;;;;1.60;1.15;;;19.60;47.10;;;;;;6228625;28;20026;-67
2022/01/09 11:02:45;;;;;;;2.90;1.10;;;19.60;47.00;;;;;;6221869;28;20076;-67
2022/01/09 11:05:46;;;;;;;1.90;1.10;;;19.60;47.10;;;;;;6221105;28;20022;-67
2022/01/09 11:08:48;;;;;;;1.45;0.95;;;19.60;47.10;;;;;;6221068;28;20029;-67
2022/01/09 11:11:50;;;;;;;1.45;1.00;;;19.60;47.10;;;;;;6244157;28;20486;-67
2022/01/09 11:14:52;;;;;;;1.90;1.30;;;19.60;47.10;;;;;;6235034;28;20046;-68
2022/01/09 11:17:55;;;;;;;1.40;1.17;;;19.60;47.10;;;;;;6220610;28;20053;-67
2022/01/09 11:21:01;;;;;;;1.40;1.20;;;19.60;47.10;;;;;;6224250;28;20049;-67
2022/01/09 11:24:21;;;;;;;1.80;1.00;;;19.60;47.20;;;;;;6223626;28;20045;-68
2022/01/09 11:27:46;;;;;;;1.77;1.17;;;19.60;47.20;;;;;;6221379;28;20057;-67
2022/01/09 11:31:07;;;;;;;1.75;1.00;;;19.60;47.20;;;;;;6219946;28;20313;-66
2022/01/09 11:34:08;;;;;;;1.80;1.30;;;19.60;47.10;;;;;;6219837;28;20026;-67
2022/01/09 11:37:36;;;;;;;1.45;0.80;;;19.70;47.20;;;;;;6217550;28;20037;-67
2022/01/09 11:40:38;;;;;;;1.58;1.00;;;19.60;47.10;;;;;;6218273;28;20491;-67
2022/01/09 11:43:50;;;;;;;1.73;1.02;;;19.70;47.90;;;;;;6224278;28;20033;-67
2022/01/09 11:46:58;;;;;;;1.20;1.00;;;19.60;47.10;;;;;;6220307;28;20573;-67
2022/01/09 11:49:59;;;;;;;1.52;1.02;;;19.60;47.10;;;;;;6221843;28;20058;-66
2022/01/09 11:53:00;;;;;;;1.30;1.08;;;19.60;47.10;;;;;;6212226;28;20026;-67
2022/01/09 11:56:01;;;;;;;1.10;1.00;;;19.60;47.20;;;;;;6218600;28;20030;-67
2022/01/09 11:59:20;;;;;;;2.22;0.90;;;19.60;47.20;;;;;;6208470;28;20113;-68
2022/01/09 12:02:27;;;;;;;1.48;1.10;;;19.70;47.30;;;;;;6202800;28;20026;-67
2022/01/09 12:05:27;;;;;;;1.10;0.85;;;19.60;47.20;;;;;;6219525;28;20026;-67
2022/01/09 12:08:54;;;;;;;1.38;0.98;;;19.60;47.20;;;;;;6218240;28;20395;-66
2022/01/09 12:12:04;;;;;;;5.70;0.85;;;19.60;47.20;;;;;;6219773;28;20101;-67
2022/01/09 12:15:05;;;;;;;1.15;0.95;;;19.60;47.30;;;;;;6219448;28;20073;-67
2022/01/09 12:18:27;;;;;;;4.85;1.10;;;19.70;47.30;;;;;;6219629;28;20034;-66
2022/01/09 12:21:40;;;;;;;6.63;1.25;;;19.60;47.20;;;;;;6223305;28;20053;-66
2022/01/09 12:24:42;;;;;;;3.17;1.00;;;19.70;47.30;;;;;;6230713;28;20026;-67
2022/01/09 12:27:48;;;;;;;1.10;0.85;;;19.70;47.30;;;;;;6219641;28;20120;-67
2022/01/09 12:31:00;;;;;;;3.50;0.90;;;19.60;47.20;;;;;;6219809;28;20029;-65
2022/01/09 12:34:01;;;;;;;2.95;0.90;;;19.60;47.30;;;;;;6218736;28;20545;-67
2022/01/09 12:37:01;;;;;;;1.63;1.00;;;19.60;47.20;;;;;;6209730;28;20081;-67
2022/01/09 12:40:05;;;;;;;2.08;1.10;;;19.60;47.20;;;;;;6218103;28;20026;-67
2022/01/09 12:43:06;;;;;;;1.42;1.10;;;19.60;47.20;;;;;;6218889;28;20033;-68
2022/01/09 12:46:09;;;;;;;1.25;0.98;;;19.60;47.30;;;;;;6218775;28;20022;-65
2022/01/09 12:49:14;;;;;;;1.55;1.02;;;19.60;47.30;;;;;;6201395;28;20395;-66
2022/01/09 12:52:22;;;;;;;1.50;1.20;;;19.60;47.20;;;;;;6195257;28;20391;-67
2022/01/09 12:55:22;;;;;;;2.40;0.93;;;19.70;47.30;;;;;;6209466;28;20223;-66
2022/01/09 12:58:25;;;;;;;1.95;0.93;;;19.70;47.20;;;;;;6203212;28;20041;-67
2022/01/09 13:01:36;;;;;;;5.20;1.00;;;19.70;47.20;;;;;;6242386;28;20017;-68
2022/01/09 13:04:36;;;;;;;6.03;1.15;;;19.70;47.20;;;;;;6243094;28;20574;-67
2022/01/09 13:07:37;;;;;;;1.27;0.90;;;19.70;47.30;;;;;;6243763;28;20028;-69
2022/01/09 13:10:38;;;;;;;1.75;1.10;;;19.70;47.30;;;;;;6221428;28;20064;-68
2022/01/09 13:13:41;;;;;;;1.33;0.75;;;19.70;47.30;;;;;;6196243;28;20358;-66
2022/01/09 13:16:42;;;;;;;1.65;1.02;;;19.70;48.00;;;;;;6194434;28;20053;-67
2022/01/09 13:19:43;;;;;;;1.42;0.93;;;19.70;47.30;;;;;;6209609;28;20365;-67
2022/01/09 13:22:43;;;;;;;2.55;1.13;;;19.70;47.30;;;;;;6216850;28;20018;-67
2022/01/09 13:25:47;;;;;;;4.45;0.90;;;19.70;47.30;;;;;;6217304;28;20159;-67
2022/01/09 13:28:49;;;;;;;0.90;0.75;;;19.70;47.30;;;;;;6218726;28;20119;-67
2022/01/09 13:32:04;;;;;;;1.63;1.10;;;19.70;47.30;;;;;;6218893;28;20376;-67
2022/01/09 13:35:05;;;;;;;0.95;0.85;;;19.70;47.30;;;;;;6194454;28;20109;-67
2022/01/09 13:38:06;;;;;;;4.80;1.15;;;19.70;47.20;;;;;;6194285;28;20388;-67
2022/01/09 13:41:06;;;;;;;2.15;1.13;;;19.70;47.30;;;;;;6194163;28;20484;-67
2022/01/09 13:44:08;;;;;;;1.38;1.13;;;19.70;47.30;;;;;;6193503;28;20092;-66
2022/01/09 13:47:10;;;;;;;1.05;0.90;;;19.70;47.40;;;;;;6192780;28;20463;-67
2022/01/09 13:50:17;;;;;;;2.45;1.10;;;19.70;47.10;;;;;;6217397;28;20522;-66
2022/01/09 13:53:18;;;;;;;1.48;1.20;;;19.70;47.90;;;;;;6208988;28;20029;-66
2022/01/09 13:56:19;;;;;;;2.47;1.15;;;19.70;47.20;;;;;;6193465;28;20037;-67
2022/01/09 13:59:19;;;;;;;1.73;1.17;;;19.70;47.30;;;;;;6193536;28;20034;-67
2022/01/09 14:02:22;;;;;;;2.00;1.10;;;19.70;47.30;;;;;;6214888;28;20029;-67
2022/01/09 14:05:27;;;;;;;2.05;0.98;;;19.70;47.30;;;;;;6217794;28;20022;-71
2022/01/09 14:08:37;;;;;;;1.58;1.00;;;19.70;47.20;;;;;;6217517;28;20230;-72
2022/01/09 14:11:37;;;;;;;2.35;1.20;;;19.70;47.20;;;;;;6239355;28;20067;-69
2022/01/09 14:14:43;;;;;;;1.40;0.90;;;19.70;47.20;;;;;;6217641;28;20045;-69
2022/01/09 14:17:49;;;;;;;1.55;1.13;;;19.70;47.90;;;;;;6218005;28;20056;-67
2022/01/09 14:20:51;;;;;;;2.03;0.93;;;19.70;47.20;;;;;;6217997;28;20026;-68
2022/01/09 14:23:52;;;;;;;2.75;1.00;;;19.70;47.30;;;;;;6221456;28;20073;-68
2022/01/09 14:26:57;;;;;;;4.85;1.40;;;19.70;47.20;;;;;;6222709;28;20030;-69
2022/01/09 14:29:59;;;;;;;4.18;1.10;;;19.70;47.00;;;;;;6222946;28;20030;-67
2022/01/09 14:33:20;;;;;;;2.53;1.17;;;19.70;47.20;;;;;;6215084;28;20073;-67
2022/01/09 14:36:28;;;;;;;1.33;1.00;;;19.70;47.10;;;;;;6198439;28;20022;-66
2022/01/09 14:39:28;;;;;;;3.45;0.85;;;19.70;47.20;;;;;;6209844;28;20378;-67
2022/01/09 14:42:28;;;;;;;2.08;1.30;;;19.70;47.20;;;;;;6223117;28;20040;-67
2022/01/09 14:45:29;;;;;;;2.40;1.08;;;19.70;47.20;;;;;;6222857;28;20040;-66
2022/01/09 14:48:33;;;;;;;3.28;1.00;;;19.70;47.20;;;;;;6223119;28;20030;-67
2022/01/09 14:51:34;;;;;;;5.53;1.20;;;19.70;47.20;;;;;;6223409;28;20025;-67
2022/01/09 14:54:35;;;;;;;4.82;1.00;;;19.70;47.50;;;;;;6223399;28;20108;-65
2022/01/09 14:57:37;;;;;;;2.13;1.23;;;19.70;47.50;;;;;;6222404;28;20014;-66
2022/01/09 15:00:37;;;;;;;2.47;1.40;;;19.70;47.20;;;;;;6222220;28;20101;-66
2022/01/09 15:03:38;;;;;;;2.10;1.40;;;19.70;47.20;;;;;;6222364;28;20487;-66
2022/01/09 15:06:40;;;;;;;1.65;0.98;;;19.70;47.20;;;;;;6221740;28;20136;-66
2022/01/09 15:09:40;;;;;;;6.78;1.60;;;19.70;47.20;;;;;;6221878;28;20081;-66
2022/01/09 15:12:41;;;;;;;3.58;1.20;;;19.70;47.20;;;;;;6222449;28;20052;-66
2022/01/09 15:15:42;;;;;;;1.95;1.00;;;19.70;47.20;;;;;;6220568;28;20084;-66
2022/01/09 15:18:43;;;;;;;2.00;1.05;;;19.70;47.20;;;;;;6222275;28;20387;-65
2022/01/09 15:21:44;;;;;;;1.92;1.20;;;19.70;47.20;;;;;;6221892;28;20064;-66
2022/01/09 15:24:44;;;;;;;1.95;1.00;;;19.70;47.20;;;;;;6222510;28;20026;-66
2022/01/09 15:27:45;;;;;;;1.05;0.90;;;19.70;47.20;;;;;;6220770;28;20030;-66
2022/01/09 15:30:46;;;;;;;3.70;1.17;;;19.70;47.20;;;;;;6220826;28;20022;-65
2022/01/09 15:33:47;;;;;;;1.63;1.17;;;19.70;47.20;;;;;;6220492;28;20080;-66
2022/01/09 15:36:48;;;;;;;2.90;0.95;;;19.70;47.30;;;;;;6221556;28;20053;-66
2022/01/09 15:39:48;;;;;;;1.67;0.98;;;19.70;47.20;;;;;;6212082;28;20035;-65
2022/01/09 15:42:49;;;;;;;1.08;0.93;;;19.70;47.20;;;;;;6197379;28;20058;-65
2022/01/09 15:45:52;;;;;;;1.80;0.90;;;19.70;47.30;;;;;;6198484;28;20072;-67
2022/01/09 15:48:53;;;;;;;2.65;0.95;;;19.70;47.20;;;;;;6220741;28;20103;-66
2022/01/09 15:51:53;;;;;;;2.55;1.23;;;19.70;47.20;;;;;;6216510;28;20029;-66